sensor_id;sensor_type;location;lat;lon;timestamp;P1;durP1;ratioP1;P2;durP2;ratioP2
55114;SDS011;41010;53.252;5.786;2023-11-19T00:00:33;52.63;;;5.18;;
55114;SDS011;41010;53.252;5.786;2023-11-19T00:03:02;46.47;;;4.95;;
55114;SDS011;41010;53.252;5.786;2023-11-19T00:05:29;49.50;;;4.60;;
55114;SDS011;41010;53.252;5.786;2023-11-19T00:07:57;47.38;;;4.93;;
55114;SDS011;41010;53.252;5.786;2023-11-19T00:10:24;44.58;;;5.22;;
55114;SDS011;41010;53.252;5.786;2023-11-19T00:12:51;43.72;;;5.22;;
55114;SDS011;41010;53.252;5.786;2023-11-19T00:15:19;34.53;;;4.82;;
55114;SDS011;41010;53.252;5.786;2023-11-19T00:17:46;41.63;;;5.15;;
55114;SDS011;41010;53.252;5.786;2023-11-19T00:20:15;43.28;;;5.22;;
55114;SDS011;41010;53.252;5.786;2023-11-19T00:22:43;47.75;;;5.85;;
55114;SDS011;41010;53.252;5.786;2023-11-19T00:25:13;54.65;;;4.30;;
55114;SDS011;41010;53.252;5.786;2023-11-19T00:27:41;42.13;;;4.53;;
55114;SDS011;41010;53.252;5.786;2023-11-19T00:30:10;38.35;;;5.55;;
55114;SDS011;41010;53.252;5.786;2023-11-19T00:32:37;43.67;;;5.03;;
55114;SDS011;41010;53.252;5.786;2023-11-19T00:35:04;38.20;;;4.72;;
55114;SDS011;41010;53.252;5.786;2023-11-19T00:37:33;54.13;;;5.97;;
55114;SDS011;41010;53.252;5.786;2023-11-19T00:40:01;38.38;;;4.70;;
55114;SDS011;41010;53.252;5.786;2023-11-19T00:42:30;40.20;;;4.75;;
55114;SDS011;41010;53.252;5.786;2023-11-19T00:44:58;56.40;;;5.05;;
55114;SDS011;41010;53.252;5.786;2023-11-19T00:47:26;45.67;;;5.28;;
55114;SDS011;41010;53.252;5.786;2023-11-19T00:49:53;51.72;;;5.47;;
55114;SDS011;41010;53.252;5.786;2023-11-19T00:52:21;41.13;;;4.80;;
55114;SDS011;41010;53.252;5.786;2023-11-19T00:54:49;40.90;;;4.70;;
55114;SDS011;41010;53.252;5.786;2023-11-19T00:57:16;53.17;;;4.88;;
55114;SDS011;41010;53.252;5.786;2023-11-19T00:59:44;44.10;;;5.47;;
55114;SDS011;41010;53.252;5.786;2023-11-19T01:02:12;42.80;;;4.63;;
55114;SDS011;41010;53.252;5.786;2023-11-19T01:04:40;42.45;;;3.85;;
55114;SDS011;41010;53.252;5.786;2023-11-19T01:07:08;49.45;;;5.07;;
55114;SDS011;41010;53.252;5.786;2023-11-19T01:09:37;64.63;;;5.28;;
55114;SDS011;41010;53.252;5.786;2023-11-19T01:12:07;50.88;;;5.00;;
55114;SDS011;41010;53.252;5.786;2023-11-19T01:14:36;54.55;;;4.88;;
55114;SDS011;41010;53.252;5.786;2023-11-19T01:17:03;54.10;;;5.05;;
55114;SDS011;41010;53.252;5.786;2023-11-19T01:19:31;44.28;;;5.25;;
55114;SDS011;41010;53.252;5.786;2023-11-19T01:21:58;52.00;;;5.55;;
55114;SDS011;41010;53.252;5.786;2023-11-19T01:24:25;46.58;;;5.55;;
55114;SDS011;41010;53.252;5.786;2023-11-19T01:26:53;51.50;;;4.55;;
55114;SDS011;41010;53.252;5.786;2023-11-19T01:29:24;47.08;;;5.32;;
55114;SDS011;41010;53.252;5.786;2023-11-19T01:31:51;49.95;;;5.43;;
55114;SDS011;41010;53.252;5.786;2023-11-19T01:34:18;60.50;;;5.97;;
55114;SDS011;41010;53.252;5.786;2023-11-19T01:36:46;51.85;;;5.38;;
55114;SDS011;41010;53.252;5.786;2023-11-19T01:39:14;51.92;;;5.00;;
55114;SDS011;41010;53.252;5.786;2023-11-19T01:41:42;49.40;;;4.60;;
55114;SDS011;41010;53.252;5.786;2023-11-19T01:44:09;50.85;;;5.70;;
55114;SDS011;41010;53.252;5.786;2023-11-19T01:46:39;32.85;;;5.63;;
55114;SDS011;41010;53.252;5.786;2023-11-19T01:49:07;57.47;;;6.35;;
55114;SDS011;41010;53.252;5.786;2023-11-19T01:51:36;47.03;;;5.10;;
55114;SDS011;41010;53.252;5.786;2023-11-19T01:54:03;37.15;;;4.47;;
55114;SDS011;41010;53.252;5.786;2023-11-19T01:56:31;48.40;;;5.32;;
55114;SDS011;41010;53.252;5.786;2023-11-19T01:58:58;53.92;;;5.80;;
55114;SDS011;41010;53.252;5.786;2023-11-19T02:01:26;50.70;;;5.10;;
55114;SDS011;41010;53.252;5.786;2023-11-19T02:03:56;50.05;;;4.72;;
55114;SDS011;41010;53.252;5.786;2023-11-19T02:06:25;51.92;;;5.05;;
55114;SDS011;41010;53.252;5.786;2023-11-19T02:08:53;39.42;;;4.60;;
55114;SDS011;41010;53.252;5.786;2023-11-19T02:11:20;48.95;;;4.50;;
55114;SDS011;41010;53.252;5.786;2023-11-19T02:13:47;44.90;;;4.90;;
55114;SDS011;41010;53.252;5.786;2023-11-19T02:16:14;38.58;;;4.95;;
55114;SDS011;41010;53.252;5.786;2023-11-19T02:18:41;55.60;;;5.15;;
55114;SDS011;41010;53.252;5.786;2023-11-19T02:21:10;46.17;;;4.45;;
55114;SDS011;41010;53.252;5.786;2023-11-19T02:23:40;54.33;;;5.13;;
55114;SDS011;41010;53.252;5.786;2023-11-19T02:26:09;43.17;;;4.65;;
55114;SDS011;41010;53.252;5.786;2023-11-19T02:28:40;47.35;;;4.85;;
55114;SDS011;41010;53.252;5.786;2023-11-19T02:31:08;46.90;;;5.18;;
55114;SDS011;41010;53.252;5.786;2023-11-19T02:33:35;40.30;;;5.35;;
55114;SDS011;41010;53.252;5.786;2023-11-19T02:36:03;46.88;;;4.68;;
55114;SDS011;41010;53.252;5.786;2023-11-19T02:38:32;34.90;;;4.30;;
55114;SDS011;41010;53.252;5.786;2023-11-19T02:40:59;41.00;;;4.80;;
55114;SDS011;41010;53.252;5.786;2023-11-19T02:43:30;45.50;;;4.50;;
55114;SDS011;41010;53.252;5.786;2023-11-19T02:46:00;38.00;;;4.03;;
55114;SDS011;41010;53.252;5.786;2023-11-19T02:48:27;52.25;;;5.38;;
55114;SDS011;41010;53.252;5.786;2023-11-19T02:50:55;46.15;;;4.93;;
55114;SDS011;41010;53.252;5.786;2023-11-19T02:53:24;46.47;;;4.68;;
55114;SDS011;41010;53.252;5.786;2023-11-19T02:55:52;44.58;;;5.00;;
55114;SDS011;41010;53.252;5.786;2023-11-19T03:00:53;32.83;;;4.10;;
55114;SDS011;41010;53.252;5.786;2023-11-19T03:03:26;39.20;;;4.05;;
55114;SDS011;41010;53.252;5.786;2023-11-19T03:06:03;32.88;;;4.38;;
55114;SDS011;41010;53.252;5.786;2023-11-19T03:08:31;46.92;;;4.95;;
55114;SDS011;41010;53.252;5.786;2023-11-19T03:10:58;43.83;;;4.53;;
55114;SDS011;41010;53.252;5.786;2023-11-19T03:13:26;45.50;;;4.50;;
55114;SDS011;41010;53.252;5.786;2023-11-19T03:15:53;38.33;;;4.25;;
55114;SDS011;41010;53.252;5.786;2023-11-19T03:18:20;37.20;;;4.78;;
55114;SDS011;41010;53.252;5.786;2023-11-19T03:20:49;51.20;;;5.30;;
55114;SDS011;41010;53.252;5.786;2023-11-19T03:23:17;39.03;;;4.95;;
55114;SDS011;41010;53.252;5.786;2023-11-19T03:25:44;33.65;;;4.28;;
55114;SDS011;41010;53.252;5.786;2023-11-19T03:28:11;48.20;;;4.88;;
55114;SDS011;41010;53.252;5.786;2023-11-19T03:30:39;37.63;;;3.83;;
55114;SDS011;41010;53.252;5.786;2023-11-19T03:33:06;46.28;;;4.90;;
55114;SDS011;41010;53.252;5.786;2023-11-19T03:35:33;42.65;;;4.63;;
55114;SDS011;41010;53.252;5.786;2023-11-19T03:38:02;39.25;;;4.68;;
55114;SDS011;41010;53.252;5.786;2023-11-19T03:40:29;40.58;;;4.15;;
55114;SDS011;41010;53.252;5.786;2023-11-19T03:42:56;48.53;;;4.38;;
55114;SDS011;41010;53.252;5.786;2023-11-19T03:45:23;38.13;;;5.15;;
55114;SDS011;41010;53.252;5.786;2023-11-19T03:47:51;38.47;;;4.15;;
55114;SDS011;41010;53.252;5.786;2023-11-19T03:50:17;47.25;;;5.10;;
55114;SDS011;41010;53.252;5.786;2023-11-19T03:52:45;40.33;;;4.18;;
55114;SDS011;41010;53.252;5.786;2023-11-19T03:55:14;32.88;;;3.95;;
55114;SDS011;41010;53.252;5.786;2023-11-19T03:57:41;34.20;;;4.75;;
55114;SDS011;41010;53.252;5.786;2023-11-19T04:00:08;43.40;;;4.43;;
55114;SDS011;41010;53.252;5.786;2023-11-19T04:02:39;39.30;;;5.35;;
55114;SDS011;41010;53.252;5.786;2023-11-19T04:05:06;26.45;;;4.00;;
55114;SDS011;41010;53.252;5.786;2023-11-19T04:07:35;37.50;;;4.97;;
55114;SDS011;41010;53.252;5.786;2023-11-19T04:10:02;32.60;;;4.45;;
55114;SDS011;41010;53.252;5.786;2023-11-19T04:12:31;41.35;;;3.70;;
55114;SDS011;41010;53.252;5.786;2023-11-19T04:14:58;37.05;;;4.75;;
55114;SDS011;41010;53.252;5.786;2023-11-19T04:17:25;46.35;;;5.47;;
55114;SDS011;41010;53.252;5.786;2023-11-19T04:19:53;39.22;;;4.30;;
55114;SDS011;41010;53.252;5.786;2023-11-19T04:22:20;47.33;;;4.80;;
55114;SDS011;41010;53.252;5.786;2023-11-19T04:24:48;37.28;;;4.13;;
55114;SDS011;41010;53.252;5.786;2023-11-19T04:27:15;39.85;;;4.75;;
55114;SDS011;41010;53.252;5.786;2023-11-19T04:29:43;38.13;;;4.85;;
55114;SDS011;41010;53.252;5.786;2023-11-19T04:32:12;45.30;;;4.65;;
55114;SDS011;41010;53.252;5.786;2023-11-19T04:34:39;41.80;;;3.80;;
55114;SDS011;41010;53.252;5.786;2023-11-19T04:37:06;48.75;;;5.22;;
55114;SDS011;41010;53.252;5.786;2023-11-19T04:39:34;41.85;;;4.22;;
55114;SDS011;41010;53.252;5.786;2023-11-19T04:42:02;40.97;;;4.03;;
55114;SDS011;41010;53.252;5.786;2023-11-19T04:44:31;33.72;;;4.63;;
55114;SDS011;41010;53.252;5.786;2023-11-19T04:47:00;37.25;;;4.75;;
55114;SDS011;41010;53.252;5.786;2023-11-19T04:49:27;43.60;;;4.95;;
55114;SDS011;41010;53.252;5.786;2023-11-19T04:51:55;46.03;;;5.03;;
55114;SDS011;41010;53.252;5.786;2023-11-19T04:54:22;39.70;;;5.15;;
55114;SDS011;41010;53.252;5.786;2023-11-19T04:56:50;44.20;;;4.78;;
55114;SDS011;41010;53.252;5.786;2023-11-19T04:59:17;40.53;;;4.57;;
55114;SDS011;41010;53.252;5.786;2023-11-19T05:01:46;43.83;;;4.53;;
55114;SDS011;41010;53.252;5.786;2023-11-19T05:04:15;40.13;;;4.70;;
55114;SDS011;41010;53.252;5.786;2023-11-19T05:06:43;52.53;;;6.30;;
55114;SDS011;41010;53.252;5.786;2023-11-19T05:09:11;44.05;;;4.45;;
55114;SDS011;41010;53.252;5.786;2023-11-19T05:11:38;48.00;;;4.95;;
55114;SDS011;41010;53.252;5.786;2023-11-19T05:14:06;44.17;;;5.65;;
55114;SDS011;41010;53.252;5.786;2023-11-19T05:16:34;38.03;;;4.43;;
55114;SDS011;41010;53.252;5.786;2023-11-19T05:19:01;36.58;;;4.22;;
55114;SDS011;41010;53.252;5.786;2023-11-19T05:21:30;41.28;;;5.25;;
55114;SDS011;41010;53.252;5.786;2023-11-19T05:23:57;37.38;;;4.80;;
55114;SDS011;41010;53.252;5.786;2023-11-19T05:26:26;34.13;;;4.63;;
55114;SDS011;41010;53.252;5.786;2023-11-19T05:28:53;31.42;;;5.18;;
55114;SDS011;41010;53.252;5.786;2023-11-19T05:31:20;39.65;;;5.28;;
55114;SDS011;41010;53.252;5.786;2023-11-19T05:33:48;33.38;;;4.78;;
55114;SDS011;41010;53.252;5.786;2023-11-19T05:36:15;38.17;;;4.13;;
55114;SDS011;41010;53.252;5.786;2023-11-19T05:38:43;41.15;;;4.32;;
55114;SDS011;41010;53.252;5.786;2023-11-19T05:41:11;37.58;;;4.55;;
55114;SDS011;41010;53.252;5.786;2023-11-19T05:43:38;33.40;;;4.50;;
55114;SDS011;41010;53.252;5.786;2023-11-19T05:46:06;39.22;;;4.60;;
55114;SDS011;41010;53.252;5.786;2023-11-19T05:48:34;39.75;;;4.68;;
55114;SDS011;41010;53.252;5.786;2023-11-19T05:51:01;37.50;;;5.32;;
55114;SDS011;41010;53.252;5.786;2023-11-19T05:53:28;38.47;;;4.63;;
55114;SDS011;41010;53.252;5.786;2023-11-19T05:55:57;41.85;;;4.65;;
55114;SDS011;41010;53.252;5.786;2023-11-19T05:58:29;42.95;;;5.80;;
55114;SDS011;41010;53.252;5.786;2023-11-19T06:00:57;34.80;;;3.85;;
55114;SDS011;41010;53.252;5.786;2023-11-19T06:03:26;36.25;;;4.57;;
55114;SDS011;41010;53.252;5.786;2023-11-19T06:05:54;29.42;;;3.88;;
55114;SDS011;41010;53.252;5.786;2023-11-19T06:08:21;35.45;;;4.90;;
55114;SDS011;41010;53.252;5.786;2023-11-19T06:10:48;34.70;;;4.07;;
55114;SDS011;41010;53.252;5.786;2023-11-19T06:13:18;39.63;;;5.05;;
55114;SDS011;41010;53.252;5.786;2023-11-19T06:15:45;38.20;;;4.32;;
55114;SDS011;41010;53.252;5.786;2023-11-19T06:18:12;32.25;;;4.57;;
55114;SDS011;41010;53.252;5.786;2023-11-19T06:20:40;46.65;;;5.30;;
55114;SDS011;41010;53.252;5.786;2023-11-19T06:23:07;33.75;;;4.40;;
55114;SDS011;41010;53.252;5.786;2023-11-19T06:25:34;42.80;;;4.88;;
55114;SDS011;41010;53.252;5.786;2023-11-19T06:28:02;38.05;;;4.47;;
55114;SDS011;41010;53.252;5.786;2023-11-19T06:30:31;36.28;;;4.60;;
55114;SDS011;41010;53.252;5.786;2023-11-19T06:32:58;48.65;;;5.90;;
55114;SDS011;41010;53.252;5.786;2023-11-19T06:35:25;41.83;;;5.15;;
55114;SDS011;41010;53.252;5.786;2023-11-19T06:37:55;40.30;;;4.93;;
55114;SDS011;41010;53.252;5.786;2023-11-19T06:40:22;36.58;;;3.90;;
55114;SDS011;41010;53.252;5.786;2023-11-19T06:42:50;27.30;;;3.88;;
55114;SDS011;41010;53.252;5.786;2023-11-19T06:45:17;39.10;;;4.53;;
55114;SDS011;41010;53.252;5.786;2023-11-19T06:47:47;31.27;;;3.88;;
55114;SDS011;41010;53.252;5.786;2023-11-19T06:50:14;44.00;;;5.70;;
55114;SDS011;41010;53.252;5.786;2023-11-19T06:52:41;32.42;;;4.07;;
55114;SDS011;41010;53.252;5.786;2023-11-19T06:55:09;23.77;;;3.33;;
55114;SDS011;41010;53.252;5.786;2023-11-19T06:57:38;31.17;;;4.40;;
55114;SDS011;41010;53.252;5.786;2023-11-19T07:00:06;30.88;;;3.83;;
55114;SDS011;41010;53.252;5.786;2023-11-19T07:02:33;35.55;;;4.75;;
55114;SDS011;41010;53.252;5.786;2023-11-19T07:05:02;42.85;;;4.75;;
55114;SDS011;41010;53.252;5.786;2023-11-19T07:07:30;28.77;;;3.50;;
55114;SDS011;41010;53.252;5.786;2023-11-19T07:09:58;31.30;;;3.70;;
55114;SDS011;41010;53.252;5.786;2023-11-19T07:12:25;35.13;;;4.15;;
55114;SDS011;41010;53.252;5.786;2023-11-19T07:14:52;31.13;;;4.47;;
55114;SDS011;41010;53.252;5.786;2023-11-19T07:17:21;27.33;;;3.88;;
55114;SDS011;41010;53.252;5.786;2023-11-19T07:19:49;36.35;;;4.18;;
55114;SDS011;41010;53.252;5.786;2023-11-19T07:22:18;42.97;;;4.97;;
55114;SDS011;41010;53.252;5.786;2023-11-19T07:24:45;41.60;;;4.20;;
55114;SDS011;41010;53.252;5.786;2023-11-19T07:27:13;33.60;;;3.40;;
55114;SDS011;41010;53.252;5.786;2023-11-19T07:29:42;42.28;;;4.82;;
55114;SDS011;41010;53.252;5.786;2023-11-19T07:32:10;33.58;;;4.15;;
55114;SDS011;41010;53.252;5.786;2023-11-19T07:34:38;32.97;;;3.80;;
55114;SDS011;41010;53.252;5.786;2023-11-19T07:37:06;38.97;;;4.80;;
55114;SDS011;41010;53.252;5.786;2023-11-19T07:39:34;36.60;;;4.05;;
55114;SDS011;41010;53.252;5.786;2023-11-19T07:42:06;32.77;;;3.50;;
55114;SDS011;41010;53.252;5.786;2023-11-19T07:44:34;44.45;;;4.53;;
55114;SDS011;41010;53.252;5.786;2023-11-19T07:47:01;37.35;;;3.78;;
55114;SDS011;41010;53.252;5.786;2023-11-19T07:49:29;34.55;;;4.43;;
55114;SDS011;41010;53.252;5.786;2023-11-19T07:51:57;27.63;;;3.80;;
55114;SDS011;41010;53.252;5.786;2023-11-19T07:54:24;33.40;;;3.90;;
55114;SDS011;41010;53.252;5.786;2023-11-19T07:56:54;42.38;;;5.03;;
55114;SDS011;41010;53.252;5.786;2023-11-19T07:59:22;47.70;;;4.57;;
55114;SDS011;41010;53.252;5.786;2023-11-19T08:01:49;30.08;;;4.22;;
55114;SDS011;41010;53.252;5.786;2023-11-19T08:04:16;36.33;;;4.85;;
55114;SDS011;41010;53.252;5.786;2023-11-19T08:06:44;34.40;;;4.07;;
55114;SDS011;41010;53.252;5.786;2023-11-19T08:09:12;36.78;;;3.90;;
55114;SDS011;41010;53.252;5.786;2023-11-19T08:11:40;38.40;;;4.28;;
55114;SDS011;41010;53.252;5.786;2023-11-19T08:14:08;37.55;;;5.30;;
55114;SDS011;41010;53.252;5.786;2023-11-19T08:16:36;38.83;;;5.13;;
55114;SDS011;41010;53.252;5.786;2023-11-19T08:19:04;35.60;;;4.38;;
55114;SDS011;41010;53.252;5.786;2023-11-19T08:21:31;34.88;;;3.95;;
55114;SDS011;41010;53.252;5.786;2023-11-19T08:23:58;28.45;;;3.65;;
55114;SDS011;41010;53.252;5.786;2023-11-19T08:26:27;31.02;;;5.10;;
55114;SDS011;41010;53.252;5.786;2023-11-19T08:28:54;34.58;;;4.00;;
55114;SDS011;41010;53.252;5.786;2023-11-19T08:31:25;38.28;;;4.25;;
55114;SDS011;41010;53.252;5.786;2023-11-19T08:33:52;35.15;;;4.90;;
55114;SDS011;41010;53.252;5.786;2023-11-19T08:36:20;42.97;;;4.40;;
55114;SDS011;41010;53.252;5.786;2023-11-19T08:38:47;36.83;;;4.03;;
55114;SDS011;41010;53.252;5.786;2023-11-19T08:41:15;34.00;;;3.33;;
55114;SDS011;41010;53.252;5.786;2023-11-19T08:43:43;31.05;;;4.55;;
55114;SDS011;41010;53.252;5.786;2023-11-19T08:46:10;38.58;;;5.00;;
55114;SDS011;41010;53.252;5.786;2023-11-19T08:48:38;37.53;;;3.95;;
55114;SDS011;41010;53.252;5.786;2023-11-19T08:51:06;39.30;;;5.00;;
55114;SDS011;41010;53.252;5.786;2023-11-19T08:53:33;32.90;;;3.72;;
55114;SDS011;41010;53.252;5.786;2023-11-19T08:56:01;28.33;;;3.60;;
55114;SDS011;41010;53.252;5.786;2023-11-19T08:58:28;32.80;;;3.88;;
55114;SDS011;41010;53.252;5.786;2023-11-19T09:00:56;33.95;;;4.70;;
55114;SDS011;41010;53.252;5.786;2023-11-19T09:03:23;36.13;;;5.18;;
55114;SDS011;41010;53.252;5.786;2023-11-19T09:05:53;33.15;;;4.18;;
55114;SDS011;41010;53.252;5.786;2023-11-19T09:08:20;38.50;;;4.10;;
55114;SDS011;41010;53.252;5.786;2023-11-19T09:10:47;36.40;;;5.25;;
55114;SDS011;41010;53.252;5.786;2023-11-19T09:13:15;38.72;;;4.53;;
55114;SDS011;41010;53.252;5.786;2023-11-19T09:15:42;37.67;;;4.45;;
55114;SDS011;41010;53.252;5.786;2023-11-19T09:18:09;39.10;;;5.18;;
55114;SDS011;41010;53.252;5.786;2023-11-19T09:20:36;37.05;;;4.85;;
55114;SDS011;41010;53.252;5.786;2023-11-19T09:23:05;34.70;;;3.95;;
55114;SDS011;41010;53.252;5.786;2023-11-19T09:25:34;36.25;;;4.55;;
55114;SDS011;41010;53.252;5.786;2023-11-19T09:28:01;47.03;;;5.50;;
55114;SDS011;41010;53.252;5.786;2023-11-19T09:30:28;41.13;;;5.05;;
55114;SDS011;41010;53.252;5.786;2023-11-19T09:32:55;37.85;;;4.72;;
55114;SDS011;41010;53.252;5.786;2023-11-19T09:35:23;36.28;;;4.00;;
55114;SDS011;41010;53.252;5.786;2023-11-19T09:37:50;42.03;;;4.35;;
55114;SDS011;41010;53.252;5.786;2023-11-19T09:40:22;39.38;;;3.65;;
55114;SDS011;41010;53.252;5.786;2023-11-19T09:42:49;42.25;;;4.15;;
55114;SDS011;41010;53.252;5.786;2023-11-19T09:45:17;33.78;;;3.95;;
55114;SDS011;41010;53.252;5.786;2023-11-19T09:47:44;22.65;;;2.95;;
55114;SDS011;41010;53.252;5.786;2023-11-19T09:50:14;35.88;;;3.80;;
55114;SDS011;41010;53.252;5.786;2023-11-19T09:52:43;32.55;;;4.65;;
55114;SDS011;41010;53.252;5.786;2023-11-19T09:55:10;35.33;;;4.95;;
55114;SDS011;41010;53.252;5.786;2023-11-19T09:57:39;30.83;;;3.28;;
55114;SDS011;41010;53.252;5.786;2023-11-19T10:00:07;25.73;;;3.50;;
55114;SDS011;41010;53.252;5.786;2023-11-19T10:02:36;31.85;;;3.95;;
55114;SDS011;41010;53.252;5.786;2023-11-19T10:05:04;22.02;;;3.60;;
55114;SDS011;41010;53.252;5.786;2023-11-19T10:07:32;27.15;;;3.47;;
55114;SDS011;41010;53.252;5.786;2023-11-19T10:10:00;31.23;;;3.65;;
55114;SDS011;41010;53.252;5.786;2023-11-19T10:12:29;38.22;;;4.35;;
55114;SDS011;41010;53.252;5.786;2023-11-19T10:14:58;29.92;;;3.47;;
55114;SDS011;41010;53.252;5.786;2023-11-19T10:17:28;31.00;;;3.97;;
55114;SDS011;41010;53.252;5.786;2023-11-19T10:19:56;33.13;;;3.92;;
55114;SDS011;41010;53.252;5.786;2023-11-19T10:22:23;32.85;;;4.00;;
55114;SDS011;41010;53.252;5.786;2023-11-19T10:24:51;35.40;;;5.15;;
55114;SDS011;41010;53.252;5.786;2023-11-19T10:27:19;38.17;;;3.88;;
55114;SDS011;41010;53.252;5.786;2023-11-19T10:29:47;34.42;;;4.05;;
55114;SDS011;41010;53.252;5.786;2023-11-19T10:32:15;33.17;;;3.72;;
55114;SDS011;41010;53.252;5.786;2023-11-19T10:34:43;32.60;;;4.20;;
55114;SDS011;41010;53.252;5.786;2023-11-19T10:37:11;25.20;;;3.08;;
55114;SDS011;41010;53.252;5.786;2023-11-19T10:39:54;35.17;;;4.65;;
55114;SDS011;41010;53.252;5.786;2023-11-19T10:42:22;30.85;;;4.25;;
55114;SDS011;41010;53.252;5.786;2023-11-19T10:44:49;30.48;;;3.58;;
55114;SDS011;41010;53.252;5.786;2023-11-19T10:47:19;29.52;;;3.53;;
55114;SDS011;41010;53.252;5.786;2023-11-19T10:49:47;34.83;;;3.67;;
55114;SDS011;41010;53.252;5.786;2023-11-19T10:52:16;35.70;;;4.28;;
55114;SDS011;41010;53.252;5.786;2023-11-19T10:54:44;34.45;;;4.55;;
55114;SDS011;41010;53.252;5.786;2023-11-19T10:57:15;26.33;;;3.10;;
55114;SDS011;41010;53.252;5.786;2023-11-19T10:59:46;28.70;;;4.25;;
55114;SDS011;41010;53.252;5.786;2023-11-19T11:02:14;37.97;;;4.50;;
55114;SDS011;41010;53.252;5.786;2023-11-19T11:04:46;26.58;;;3.65;;
55114;SDS011;41010;53.252;5.786;2023-11-19T11:07:14;23.95;;;2.95;;
55114;SDS011;41010;53.252;5.786;2023-11-19T11:09:42;36.58;;;4.22;;
55114;SDS011;41010;53.252;5.786;2023-11-19T11:12:11;22.33;;;3.10;;
55114;SDS011;41010;53.252;5.786;2023-11-19T11:14:39;19.42;;;3.17;;
55114;SDS011;41010;53.252;5.786;2023-11-19T11:17:07;21.55;;;4.30;;
55114;SDS011;41010;53.252;5.786;2023-11-19T11:19:35;26.55;;;3.50;;
55114;SDS011;41010;53.252;5.786;2023-11-19T11:22:04;31.33;;;3.55;;
55114;SDS011;41010;53.252;5.786;2023-11-19T11:24:50;30.25;;;4.57;;
55114;SDS011;41010;53.252;5.786;2023-11-19T11:27:32;32.65;;;4.13;;
55114;SDS011;41010;53.252;5.786;2023-11-19T11:30:05;33.03;;;4.72;;
55114;SDS011;41010;53.252;5.786;2023-11-19T11:32:40;36.35;;;4.72;;
55114;SDS011;41010;53.252;5.786;2023-11-19T11:35:17;32.05;;;5.38;;
55114;SDS011;41010;53.252;5.786;2023-11-19T11:37:50;38.85;;;4.15;;
55114;SDS011;41010;53.252;5.786;2023-11-19T11:40:20;31.38;;;4.82;;
55114;SDS011;41010;53.252;5.786;2023-11-19T11:42:48;30.13;;;4.05;;
55114;SDS011;41010;53.252;5.786;2023-11-19T11:45:17;32.00;;;5.25;;
55114;SDS011;41010;53.252;5.786;2023-11-19T11:50:30;31.13;;;3.70;;
55114;SDS011;41010;53.252;5.786;2023-11-19T11:53:14;40.85;;;4.72;;
55114;SDS011;41010;53.252;5.786;2023-11-19T11:55:52;32.58;;;4.78;;
55114;SDS011;41010;53.252;5.786;2023-11-19T11:58:20;30.65;;;4.70;;
55114;SDS011;41010;53.252;5.786;2023-11-19T12:00:48;24.05;;;4.13;;
55114;SDS011;41010;53.252;5.786;2023-11-19T12:03:17;33.70;;;4.13;;
55114;SDS011;41010;53.252;5.786;2023-11-19T12:05:47;26.08;;;4.20;;
55114;SDS011;41010;53.252;5.786;2023-11-19T12:08:18;33.53;;;3.67;;
55114;SDS011;41010;53.252;5.786;2023-11-19T12:10:46;38.20;;;4.03;;
55114;SDS011;41010;53.252;5.786;2023-11-19T12:13:14;36.28;;;4.10;;
55114;SDS011;41010;53.252;5.786;2023-11-19T12:18:29;25.95;;;4.20;;
55114;SDS011;41010;53.252;5.786;2023-11-19T12:20:57;25.83;;;4.38;;
55114;SDS011;41010;53.252;5.786;2023-11-19T12:23:27;33.05;;;3.10;;
55114;SDS011;41010;53.252;5.786;2023-11-19T12:25:55;30.92;;;4.30;;
55114;SDS011;41010;53.252;5.786;2023-11-19T12:28:23;20.38;;;2.92;;
55114;SDS011;41010;53.252;5.786;2023-11-19T12:30:51;25.05;;;3.58;;
55114;SDS011;41010;53.252;5.786;2023-11-19T12:33:19;29.40;;;3.78;;
55114;SDS011;41010;53.252;5.786;2023-11-19T12:35:47;30.23;;;4.50;;
55114;SDS011;41010;53.252;5.786;2023-11-19T12:38:18;32.67;;;3.85;;
55114;SDS011;41010;53.252;5.786;2023-11-19T12:40:47;25.05;;;3.45;;
55114;SDS011;41010;53.252;5.786;2023-11-19T12:43:21;20.70;;;2.97;;
55114;SDS011;41010;53.252;5.786;2023-11-19T12:45:48;22.77;;;4.10;;
55114;SDS011;41010;53.252;5.786;2023-11-19T12:48:15;22.73;;;3.20;;
55114;SDS011;41010;53.252;5.786;2023-11-19T12:50:52;25.17;;;3.50;;
55114;SDS011;41010;53.252;5.786;2023-11-19T12:53:21;23.77;;;3.17;;
55114;SDS011;41010;53.252;5.786;2023-11-19T12:55:50;24.77;;;3.33;;
55114;SDS011;41010;53.252;5.786;2023-11-19T12:58:30;30.52;;;3.45;;
55114;SDS011;41010;53.252;5.786;2023-11-19T13:01:00;27.23;;;4.75;;
55114;SDS011;41010;53.252;5.786;2023-11-19T13:03:31;25.17;;;3.42;;
55114;SDS011;41010;53.252;5.786;2023-11-19T13:06:02;29.67;;;3.33;;
55114;SDS011;41010;53.252;5.786;2023-11-19T13:08:35;39.47;;;3.63;;
55114;SDS011;41010;53.252;5.786;2023-11-19T13:11:05;36.72;;;3.90;;
55114;SDS011;41010;53.252;5.786;2023-11-19T13:16:15;32.50;;;4.53;;
55114;SDS011;41010;53.252;5.786;2023-11-19T13:18:43;22.90;;;3.30;;
55114;SDS011;41010;53.252;5.786;2023-11-19T13:21:11;28.90;;;3.63;;
55114;SDS011;41010;53.252;5.786;2023-11-19T13:23:38;24.92;;;3.17;;
55114;SDS011;41010;53.252;5.786;2023-11-19T13:26:07;32.13;;;3.63;;
55114;SDS011;41010;53.252;5.786;2023-11-19T13:28:34;28.05;;;3.45;;
55114;SDS011;41010;53.252;5.786;2023-11-19T13:31:01;24.40;;;3.17;;
55114;SDS011;41010;53.252;5.786;2023-11-19T13:33:28;26.17;;;3.25;;
55114;SDS011;41010;53.252;5.786;2023-11-19T13:35:56;27.05;;;3.35;;
55114;SDS011;41010;53.252;5.786;2023-11-19T13:38:23;31.77;;;3.65;;
55114;SDS011;41010;53.252;5.786;2023-11-19T13:40:51;30.67;;;3.20;;
55114;SDS011;41010;53.252;5.786;2023-11-19T13:43:20;33.20;;;4.38;;
55114;SDS011;41010;53.252;5.786;2023-11-19T13:45:47;27.23;;;3.67;;
55114;SDS011;41010;53.252;5.786;2023-11-19T13:48:14;30.98;;;4.00;;
55114;SDS011;41010;53.252;5.786;2023-11-19T13:50:42;21.13;;;3.50;;
55114;SDS011;41010;53.252;5.786;2023-11-19T13:53:09;28.55;;;3.35;;
55114;SDS011;41010;53.252;5.786;2023-11-19T13:55:36;26.67;;;3.72;;
55114;SDS011;41010;53.252;5.786;2023-11-19T13:58:03;25.83;;;3.65;;
55114;SDS011;41010;53.252;5.786;2023-11-19T14:00:32;29.25;;;3.88;;
55114;SDS011;41010;53.252;5.786;2023-11-19T14:02:59;31.83;;;3.72;;
55114;SDS011;41010;53.252;5.786;2023-11-19T14:05:27;32.45;;;4.13;;
55114;SDS011;41010;53.252;5.786;2023-11-19T14:07:54;30.48;;;3.70;;
55114;SDS011;41010;53.252;5.786;2023-11-19T14:10:23;27.10;;;3.15;;
55114;SDS011;41010;53.252;5.786;2023-11-19T14:12:50;31.95;;;3.63;;
55114;SDS011;41010;53.252;5.786;2023-11-19T14:15:17;34.55;;;3.80;;
55114;SDS011;41010;53.252;5.786;2023-11-19T14:17:46;29.88;;;3.78;;
55114;SDS011;41010;53.252;5.786;2023-11-19T14:20:13;31.90;;;3.55;;
55114;SDS011;41010;53.252;5.786;2023-11-19T14:22:42;35.22;;;3.95;;
55114;SDS011;41010;53.252;5.786;2023-11-19T14:25:10;26.17;;;3.10;;
55114;SDS011;41010;53.252;5.786;2023-11-19T14:27:37;31.27;;;3.45;;
55114;SDS011;41010;53.252;5.786;2023-11-19T14:30:05;34.25;;;4.15;;
55114;SDS011;41010;53.252;5.786;2023-11-19T14:32:35;33.17;;;3.85;;
55114;SDS011;41010;53.252;5.786;2023-11-19T14:35:04;25.25;;;4.13;;
55114;SDS011;41010;53.252;5.786;2023-11-19T14:37:31;28.30;;;3.58;;
55114;SDS011;41010;53.252;5.786;2023-11-19T14:39:59;31.58;;;3.72;;
55114;SDS011;41010;53.252;5.786;2023-11-19T14:42:28;29.00;;;3.40;;
55114;SDS011;41010;53.252;5.786;2023-11-19T14:44:55;35.28;;;3.90;;
55114;SDS011;41010;53.252;5.786;2023-11-19T14:47:22;28.52;;;3.38;;
55114;SDS011;41010;53.252;5.786;2023-11-19T14:49:50;27.38;;;3.78;;